METAR (acronimo di METeorological Air Report) è un messaggio meteo emesso nella maggior parte dei casi in ambito aeroportuale

SVMI - Caracas Simón Bolívar International Airport, Venezuela
Ultimo Aggiornamento: Lunedì 03 Agosto 2020 21:00 CEST
Prevalentemente Nuvoloso
Prevalentemente Nuvoloso
 Wind from Nord
Vento: Nord 4 km/h
Temperatura: 30°C
Heat Index: 36°C
Punto di Rugiada: 25°C
Umidità: 75%
Barometro: 1013 hPa
Nuvole: Prevalentemente Nuvoloso
Visibilità: 10 km
Nuvole nel Dettaglio: Prevalentemente Nuvoloso 488 m
2020/08/03 19:00 SVMI 031900Z 36002KT 9999 BKN016 30/25 Q1013
SKBO - Bogotá El Dorado International Airport, Colombia
Ultimo Aggiornamento: Lunedì 03 Agosto 2020 20:00 CEST
Prevalentemente Nuvoloso
Prevalentemente Nuvoloso
 Wind from Sud
Vento: Sud 22 km/h
Temperatura: 17°C
Punto di Rugiada: 6°C
Umidità: 49%
Barometro: 1029.8 hPa
Nuvole: Prevalentemente Nuvoloso
Visibilità: 10 km
Nuvole nel Dettaglio: Prevalentemente Nuvoloso 701 m
2020/08/03 18:00 SKBO 031800Z 18012KT 140V220 9999 BKN023 17/06 A3041 NOSIG
TFFF - Fort-de-France Martinique Aimé Césaire International Airport, Martinique
Ultimo Aggiornamento: Lunedì 03 Agosto 2020 20:00 CEST
Prevalentemente Nuvoloso
Prevalentemente Nuvoloso
 Wind from Sud-Est
Vento: Sud-Est 20 km/h
Temperatura: 33°C
Heat Index: 39°C
Punto di Rugiada: 24°C
Umidità: 59%
Barometro: 1015 hPa
Nuvole: Prevalentemente Nuvoloso
Visibilità: 10 km
Nuvole nel Dettaglio: Prevalentemente Nuvoloso 1158 m
2020/08/03 18:00 TFFF 031800Z AUTO 13011KT 100V170 9999 BKN038 33/24 Q1015 NOSIG
 
SEQM - Quito Mariscal Sucre International Airport, Ecuador
Ultimo Aggiornamento: Lunedì 03 Agosto 2020 20:00 CEST
Prevalentemente Nuvoloso
Prevalentemente Nuvoloso
 Wind from Nord-Ovest
Vento: Nord-Ovest 17 km/h
Temperatura: 25°C
Punto di Rugiada: 3°C
Umidità: 24%
Barometro: 1025 hPa
Nuvole: Prevalentemente Nuvoloso
Visibilità: 10 km
Nuvole nel Dettaglio: Qualche Nuvola 1006 m
Prevalentemente Nuvoloso 9144 m
2020/08/03 18:00 SEQM 031800Z 31009KT 260V020 9999 FEW033 BKN300 25/03 Q1025 NOSIG RMK A3028
SEGS - Baltra Island, Galápagos, Ecuador
Ultimo Aggiornamento: Lunedì 03 Agosto 2020 20:00 CEST
Sereno
Sereno
 Wind from Sud-Sud-Est
Vento: Sud-Sud-Est 37 km/h
Temperatura: 27°C
Heat Index: 28°C
Punto di Rugiada: 18°C
Umidità: 58%
Barometro: 1014 hPa
Condizioni: Sereno
Visibilità: superiore a 10 km
2020/08/03 18:00 SEGS 031800Z 16020KT CAVOK 27/18 Q1014 A2996
SPJC - Lima Jorge Chvez International Airport, Peru
Ultimo Aggiornamento: Lunedì 03 Agosto 2020 20:00 CEST
Nuvoloso
Nuvoloso
 Wind from Nord-Ovest
Vento: Nord-Ovest 15 km/h
Temperatura: 16°C
Punto di Rugiada: 12°C
Umidità: 77%
Barometro: 1016 hPa
Nuvole: Nuvoloso
Visibilità: 10 km
Nuvole nel Dettaglio: Nuvoloso 518 m
2020/08/03 18:00 SPJC 031800Z 31008KT 270V330 9999 OVC017 16/12 Q1016 NOSIG RMK PP000
 
SLLP - La Paz El Alto International Airport, Bolivia
Ultimo Aggiornamento: Lunedì 03 Agosto 2020 20:00 CEST
Parzialmente Nuvoloso
Parzialmente Nuvoloso
 Wind from Sud-Est
Vento: Sud-Est 13 km/h
Temperatura: 17°C
Punto di Rugiada: -17°C
Umidità: 8%
Barometro: 1041 hPa
Nuvole: Parzialmente Nuvoloso
Visibilità: 10 km
2020/08/03 18:00 SLLP 031800Z 13007KT 090V180 9999 NSC 17/M17 Q1041
SBBR - Brasilia International Airport, Brazil
Ultimo Aggiornamento: Lunedì 03 Agosto 2020 20:00 CEST
Parzialmente Nuvoloso
Parzialmente Nuvoloso
 Wind from Est-Nord-Est
Vento: Est-Nord-Est 22 km/h
Temperatura: 24°C
Punto di Rugiada: 9°C
Umidità: 39%
Barometro: 1025 hPa
Nuvole: Parzialmente Nuvoloso
Visibilità: 10 km
Nuvole nel Dettaglio: Qualche Nuvola 1372 m
Parzialmente Nuvoloso 2134 m
2020/08/03 18:00 SBBR 031800Z 06012KT 9999 FEW045 SCT070 24/09 Q1025
SCEL - Santiago Comodoro Arturo Merino Benitez International Airport, Chile
Ultimo Aggiornamento: Lunedì 03 Agosto 2020 20:00 CEST
Sereno
Sereno
 Wind from Sud
Vento: Sud 11 km/h
Temperatura: 17°C
Punto di Rugiada: 8°C
Umidità: 56%
Barometro: 1019 hPa
Condizioni: Sereno
Visibilità: superiore a 10 km
2020/08/03 18:00 SCEL 031800Z 19006KT 170V250 CAVOK 17/08 Q1019 NOSIG
 
SCCI - Punta Arenas Presidente Carlos Ibañez del Campo International Airport, Chile
Ultimo Aggiornamento: Lunedì 03 Agosto 2020 20:00 CEST
Qualche Nuvola
Qualche Nuvola
 Wind from Ovest
Vento: Ovest 46 km/h
Temperatura: 8°C
Wind Chill: 3°C
Punto di Rugiada: 1°C
Umidità: 62%
Barometro: 993 hPa
Nuvole: Qualche Nuvola
Visibilità: 10 km
Nuvole nel Dettaglio: Qualche Nuvola 1372 m
2020/08/03 18:00 SCCI 031800Z 28025KT 9999 FEW045 08/01 Q0993 NOSIG
SCIP - Easter Island Mataveri International Airport, Chile
Ultimo Aggiornamento: Lunedì 03 Agosto 2020 20:00 CEST
Prevalentemente Nuvoloso
Prevalentemente Nuvoloso
 Wind from Sud
Vento: Sud 11 km/h
Temperatura: 19°C
Punto di Rugiada: 12°C
Umidità: 64%
Barometro: 1024 hPa
Nuvole: Prevalentemente Nuvoloso
Visibilità: 10 km
Nuvole nel Dettaglio: Parzialmente Nuvoloso 884 m
Prevalentemente Nuvoloso 1128 m
2020/08/03 18:00 SCIP 031800Z 17006KT 100V230 9999 SCT029 BKN037 19/12 Q1024 NOSIG
SAEZ - Buenos Aires Ministro Pistarini International Airport, Argentina
Ultimo Aggiornamento: Lunedì 03 Agosto 2020 20:00 CEST
Sereno
Sereno
 Wind from Nord-Est
Vento: Nord-Est 15 km/h
Temperatura: 21°C
Punto di Rugiada: 15°C
Umidità: 69%
Barometro: 1020 hPa
Condizioni: Sereno
Visibilità: superiore a 10 km
2020/08/03 18:00 SAEZ 031800Z 05008KT CAVOK 21/15 Q1020 NOSIG
 
SAZM - Mar del Plata Astor Piazzolla International Airport, Argentina
Ultimo Aggiornamento: Lunedì 03 Agosto 2020 20:00 CEST
Bruma, Nuvoloso
Bruma, Nuvoloso
 Wind from Nord-Est
Vento: Nord-Est 22 km/h
Temperatura: 11°C
Punto di Rugiada: 10°C
Umidità: 94%
Barometro: 1023 hPa
Condizioni: Bruma
Nuvole: Nuvoloso
Visibilità: 5 km
Nuvole nel Dettaglio: Nuvoloso 122 m
2020/08/03 18:00 SAZM 031800Z 05012KT 5000 BR OVC004 11/10 Q1023
SAWH - Ushuaia-Malvinas Argentinas International Airport, Argentina
Ultimo Aggiornamento: Lunedì 03 Agosto 2020 20:00 CEST
Parzialmente Nuvoloso
Parzialmente Nuvoloso
 Wind from Nord-Ovest
Vento: Nord-Ovest 19 km/h
Temperatura: 10°C
Wind Chill: 7°C
Punto di Rugiada: -2°C
Umidità: 43%
Barometro: 988 hPa
Nuvole: Parzialmente Nuvoloso
Visibilità: 10 km
Nuvole nel Dettaglio: Parzialmente Nuvoloso 1372 m
2020/08/03 18:00 SAWH 031800Z 32010KT 9999 SCT045 10/M02 Q0988
EGYP - Stanley RAF Mount Pleasant, Falkland Islands
Ultimo Aggiornamento: Lunedì 03 Agosto 2020 19:50 CEST
Prevalentemente Nuvoloso
Prevalentemente Nuvoloso
 Wind from Nord
Vento: Nord 63 km/h, Raffica: 81 km/h
Temperatura: 7°C
Wind Chill: 1°C
Punto di Rugiada: 3°C
Umidità: 76%
Barometro: 1005 hPa
Nuvole: Prevalentemente Nuvoloso
Visibilità: 10 km
Nuvole nel Dettaglio: Qualche Nuvola 610 m
Prevalentemente Nuvoloso 3658 m
2020/08/03 17:50 EGYP 031750Z 36034G44KT 9999 FEW020 BKN120 07/03 Q1005 TEMPO 4000 -RADZ SCT015